createdAt,value
2018-09-19T00:00:42.811Z,99567.54
2018-09-19T00:03:11.835Z,99571.66
2018-09-19T00:05:41.362Z,99580.45
2018-09-19T00:08:11.349Z,99574.95
2018-09-19T00:10:40.655Z,99571.12
2018-09-19T00:13:09.709Z,99576.06
2018-09-19T00:15:38.962Z,99572.56
2018-09-19T00:18:07.950Z,99569.55
2018-09-19T00:20:37.432Z,99571.80
2018-09-19T00:23:06.525Z,99580.32
2018-09-19T00:25:35.749Z,99579.50
2018-09-19T00:28:05.050Z,99581.42
2018-09-19T00:30:34.399Z,99580.61
2018-09-19T00:33:03.870Z,99587.47
2018-09-19T00:35:32.851Z,99577.62
2018-09-19T00:38:02.112Z,99579.00
2018-09-19T00:40:31.944Z,99588.34
2018-09-19T00:43:00.914Z,99597.95
2018-09-19T00:45:30.315Z,99599.06
2018-09-19T00:47:59.656Z,99602.68
2018-09-19T00:50:28.797Z,99602.42
2018-09-19T00:52:57.885Z,99596.92
2018-09-19T00:55:26.868Z,99602.68
2018-09-19T00:57:55.988Z,99598.02
2018-09-19T01:00:25.102Z,99596.32
2018-09-19T01:02:55.014Z,99605.91
2018-09-19T01:05:24.180Z,99603.95
2018-09-19T01:07:53.438Z,99607.56
2018-09-19T01:10:23.395Z,99608.67
2018-09-19T01:12:52.412Z,99610.94
2018-09-19T01:15:21.394Z,99606.11
2018-09-19T01:17:50.352Z,99597.41
2018-09-19T01:20:19.540Z,99598.02
2018-09-19T01:22:48.624Z,99598.59
2018-09-19T01:25:18.525Z,99593.66
2018-09-19T01:27:47.672Z,99597.22
2018-09-19T01:30:16.939Z,99593.64
2018-09-19T01:32:46.465Z,99596.88
2018-09-19T01:35:15.481Z,99595.77
2018-09-19T01:37:44.620Z,99604.52
2018-09-19T01:40:13.838Z,99599.02
2018-09-19T01:42:42.811Z,99597.36
2018-09-19T01:45:12.011Z,99599.55
2018-09-19T01:47:41.248Z,99595.70
2018-09-19T01:50:10.456Z,99600.35
2018-09-19T01:52:39.632Z,99603.36
2018-09-19T01:55:08.802Z,99598.98
2018-09-19T01:57:37.771Z,99599.52
2018-09-19T02:00:07.091Z,99606.05
2018-09-19T02:02:36.086Z,99604.13
2018-09-19T02:05:06.510Z,99606.03
2018-09-19T02:07:35.545Z,99609.33
2018-09-19T02:10:04.902Z,99606.88
2018-09-19T02:12:34.153Z,99608.25
2018-09-19T02:15:06.225Z,99606.05
2018-09-19T02:17:35.343Z,99604.73
2018-09-19T02:20:05.120Z,99601.19
2018-09-19T02:22:34.242Z,99607.52
2018-09-19T02:25:03.969Z,99609.22
2018-09-19T02:27:33.334Z,99611.95
2018-09-19T02:30:02.591Z,99611.69
2018-09-19T02:32:32.006Z,99613.88
2018-09-19T02:35:01.415Z,99617.45
2018-09-19T02:37:30.410Z,99609.22
2018-09-19T02:39:59.548Z,99608.62
2018-09-19T02:42:28.804Z,99613.02
2018-09-19T02:44:57.932Z,99613.02
2018-09-19T02:47:27.229Z,99600.39
2018-09-19T02:49:56.390Z,99605.89
2018-09-19T02:52:25.705Z,99604.52
2018-09-19T02:54:54.816Z,99604.49
2018-09-19T02:57:23.878Z,99603.94
2018-09-19T02:59:53.422Z,99599.55
2018-09-19T03:02:22.566Z,99603.67
2018-09-19T03:04:51.696Z,99595.17
2018-09-19T03:07:21.446Z,99599.84
2018-09-19T03:09:50.861Z,99604.83
2018-09-19T03:12:20.150Z,99605.67
2018-09-19T03:14:49.372Z,99605.98
2018-09-19T03:17:24.955Z,99604.91
2018-09-19T03:19:54.174Z,99604.08
2018-09-19T03:22:23.390Z,99610.39
2018-09-19T03:24:52.647Z,99608.20
2018-09-19T03:27:21.953Z,99602.48
2018-09-19T03:29:51.626Z,99605.22
2018-09-19T03:32:21.024Z,99602.71
2018-09-19T03:34:50.431Z,99599.73
2018-09-19T03:37:19.623Z,99602.48
2018-09-19T03:39:48.958Z,99601.66
2018-09-19T03:42:18.161Z,99603.31
2018-09-19T03:44:47.144Z,99600.07
2018-09-19T03:47:16.089Z,99606.38
2018-09-19T03:49:45.406Z,99605.84
2018-09-19T03:52:15.019Z,99618.24
2018-09-19T03:54:44.232Z,99617.16
2018-09-19T03:57:13.445Z,99620.77
2018-09-19T03:59:42.649Z,99627.91
2018-09-19T04:02:12.560Z,99622.71
2018-09-19T04:04:41.864Z,99614.53
2018-09-19T04:07:11.189Z,99622.49
2018-09-19T04:09:40.565Z,99625.55
2018-09-19T04:12:09.999Z,99627.52
2018-09-19T04:14:39.402Z,99628.91
2018-09-19T04:17:08.556Z,99635.53
2018-09-19T04:19:37.725Z,99614.53
2018-09-19T04:22:07.700Z,99633.58
2018-09-19T04:24:37.443Z,99633.84
2018-09-19T04:27:06.924Z,99633.84
2018-09-19T04:29:36.126Z,99634.67
2018-09-19T04:32:05.487Z,99634.94
2018-09-19T04:34:34.676Z,99633.02
2018-09-19T04:37:04.819Z,99636.81
2018-09-19T04:39:34.068Z,99632.09
2018-09-19T04:42:03.244Z,99635.37
2018-09-19T04:44:32.538Z,99643.05
2018-09-19T04:47:01.822Z,99643.61
2018-09-19T04:49:31.222Z,99649.59
2018-09-19T04:52:00.304Z,99650.73
2018-09-19T04:54:29.668Z,99653.71
2018-09-19T04:56:58.986Z,99655.91
2018-09-19T04:59:28.267Z,99656.73
2018-09-19T05:01:57.837Z,99659.20
2018-09-19T05:04:27.068Z,99658.97
2018-09-19T05:06:56.062Z,99654.31
2018-09-19T05:09:25.907Z,99659.80
2018-09-19T05:11:55.793Z,99669.41
2018-09-19T05:14:25.000Z,99671.38
2018-09-19T05:16:54.008Z,99675.22
2018-09-19T05:19:23.262Z,99678.28
2018-09-19T05:21:52.356Z,99681.86
2018-09-19T05:24:21.679Z,99688.49
2018-09-19T05:26:51.028Z,99693.75
2018-09-19T05:29:20.368Z,99689.41
2018-09-19T05:31:49.809Z,99699.34
2018-09-19T05:34:18.861Z,99704.33
2018-09-19T05:36:48.094Z,99702.73
2018-09-19T05:39:17.396Z,99703.05
2018-09-19T05:41:47.584Z,99703.36
2018-09-19T05:44:16.874Z,99708.03
2018-09-19T05:46:46.045Z,99708.85
2018-09-19T05:49:15.097Z,99712.41
2018-09-19T05:51:44.318Z,99709.13
2018-09-19T05:54:13.424Z,99708.86
2018-09-19T05:56:42.581Z,99714.34
2018-09-19T05:59:11.842Z,99712.97
2018-09-19T06:01:41.521Z,99716.27
2018-09-19T06:04:10.669Z,99714.66
2018-09-19T06:06:40.217Z,99721.20
2018-09-19T06:09:10.705Z,99722.02
2018-09-19T06:11:41.513Z,99724.77
2018-09-19T06:14:10.619Z,99731.07
2018-09-19T06:16:39.775Z,99737.38
2018-09-19T06:19:09.048Z,99725.86
2018-09-19T06:21:38.485Z,99730.48
2018-09-19T06:24:08.079Z,99739.25
2018-09-19T06:26:37.460Z,99738.66
2018-09-19T06:29:06.941Z,99736.42
2018-09-19T06:31:36.024Z,99734.22
2018-09-19T06:34:05.430Z,99735.27
2018-09-19T06:36:34.707Z,99736.32
2018-09-19T06:39:04.986Z,99742.03
2018-09-19T06:41:34.001Z,99744.45
2018-09-19T06:44:03.443Z,99744.92
2018-09-19T06:46:32.785Z,99753.09
2018-09-19T06:49:02.753Z,99752.27
2018-09-19T06:51:32.093Z,99766.43
2018-09-19T06:54:01.606Z,99762.23
2018-09-19T06:56:30.693Z,99768.48
2018-09-19T06:58:59.884Z,99761.84
2018-09-19T07:01:29.038Z,99769.45
2018-09-19T07:03:58.523Z,99771.27
2018-09-19T07:06:27.827Z,99777.20
2018-09-19T07:08:57.014Z,99774.34
2018-09-19T07:11:26.331Z,99767.92
2018-09-19T07:13:55.403Z,99769.17
2018-09-19T07:16:24.718Z,99772.36
2018-09-19T07:18:54.308Z,99773.39
2018-09-19T07:21:24.193Z,99781.83
2018-09-19T07:23:53.709Z,99780.36
2018-09-19T07:26:23.548Z,99780.02
2018-09-19T07:28:52.911Z,99784.06
2018-09-19T07:31:22.104Z,99792.23
2018-09-19T07:33:51.604Z,99793.03
2018-09-19T07:36:21.815Z,99796.05
2018-09-19T07:38:51.179Z,99792.42
2018-09-19T07:41:20.169Z,99800.06
2018-09-19T07:43:49.581Z,99792.86
2018-09-19T07:46:19.014Z,99799.12
2018-09-19T07:48:48.480Z,99806.73
2018-09-19T07:51:17.482Z,99799.75
2018-09-19T07:53:46.428Z,99797.73
2018-09-19T07:56:15.377Z,99795.47
2018-09-19T07:58:44.318Z,99793.69
2018-09-19T08:01:13.662Z,99798.23
2018-09-19T08:03:43.139Z,99802.77
2018-09-19T08:06:12.398Z,99803.23
2018-09-19T08:08:41.518Z,99807.83
2018-09-19T08:11:10.964Z,99809.13
2018-09-19T08:13:40.178Z,99806.84
2018-09-19T08:16:09.861Z,99808.68
2018-09-19T08:18:39.182Z,99812.45
2018-09-19T08:21:08.450Z,99809.61
2018-09-19T08:23:37.516Z,99814.44
2018-09-19T08:26:06.827Z,99812.97
2018-09-19T08:28:36.284Z,99813.66
2018-09-19T08:31:05.687Z,99810.81
2018-09-19T08:33:35.128Z,99808.23
2018-09-19T08:36:04.537Z,99811.37
2018-09-19T08:38:33.737Z,99813.14
2018-09-19T08:41:03.094Z,99810.52
2018-09-19T08:43:32.147Z,99813.66
2018-09-19T08:46:01.434Z,99816.35
2018-09-19T08:48:30.850Z,99815.36
2018-09-19T08:51:00.133Z,99813.31
2018-09-19T08:53:30.605Z,99816.75
2018-09-19T08:55:59.944Z,99816.09
2018-09-19T08:58:29.392Z,99814.56
2018-09-19T09:00:59.595Z,99818.59
2018-09-19T09:03:28.622Z,99818.71
2018-09-19T09:05:57.932Z,99817.78
2018-09-19T09:08:27.950Z,99812.97
2018-09-19T09:10:57.621Z,99817.48
2018-09-19T09:13:27.518Z,99823.06
2018-09-19T09:15:56.738Z,99825.33
2018-09-19T09:18:26.005Z,99821.81
2018-09-19T09:20:55.907Z,99822.14
2018-09-19T09:23:24.892Z,99821.34
2018-09-19T09:25:53.959Z,99818.08
2018-09-19T09:28:23.222Z,99818.86
2018-09-19T09:30:52.266Z,99809.73
2018-09-19T09:33:21.539Z,99798.50
2018-09-19T09:35:50.760Z,99802.12
2018-09-19T09:38:19.920Z,99800.17
2018-09-19T09:40:49.388Z,99790.63
2018-09-19T09:43:18.855Z,99794.59
2018-09-19T09:45:48.747Z,99797.47
2018-09-19T09:48:17.919Z,99793.80
2018-09-19T09:50:47.240Z,99790.48
2018-09-19T09:53:16.549Z,99793.58
2018-09-19T09:55:45.665Z,99791.48
2018-09-19T09:58:15.135Z,99789.92
2018-09-19T10:00:44.514Z,99787.02
2018-09-19T10:03:14.077Z,99795.19
2018-09-19T10:05:43.850Z,99792.33
2018-09-19T10:08:13.591Z,99790.05
2018-09-19T10:10:42.695Z,99788.66
2018-09-19T10:13:12.214Z,99779.66
2018-09-19T10:15:41.408Z,99774.13
2018-09-19T10:18:10.792Z,99777.78
2018-09-19T10:20:39.956Z,99779.33
2018-09-19T10:23:09.279Z,99778.16
2018-09-19T10:25:38.401Z,99780.92
2018-09-19T10:28:07.505Z,99782.64
2018-09-19T10:30:36.689Z,99784.08
2018-09-19T10:33:06.148Z,99773.98
2018-09-19T10:35:35.683Z,99773.50
2018-09-19T10:38:04.955Z,99763.39
2018-09-19T10:40:34.393Z,99763.30
2018-09-19T10:43:03.583Z,99759.86
2018-09-19T10:45:33.076Z,99759.86
2018-09-19T10:48:02.178Z,99753.44
2018-09-19T10:50:32.256Z,99752.42
2018-09-19T10:53:01.470Z,99748.41
2018-09-19T10:55:30.743Z,99745.47
2018-09-19T10:58:00.540Z,99745.30
2018-09-19T11:00:30.071Z,99740.72
2018-09-19T11:02:59.610Z,99743.84
2018-09-19T11:05:29.022Z,99745.97
2018-09-19T11:07:58.887Z,99744.98
2018-09-19T11:10:28.033Z,99740.18
2018-09-19T11:13:03.599Z,99745.05
2018-09-19T11:15:33.443Z,99743.66
2018-09-19T11:18:02.564Z,99736.48
2018-09-19T11:20:31.611Z,99732.09
2018-09-19T11:23:01.324Z,99745.72
2018-09-19T11:25:30.495Z,99739.02
2018-09-19T11:27:59.556Z,99741.14
2018-09-19T11:30:28.639Z,99747.14
2018-09-19T11:32:58.084Z,99736.31
2018-09-19T11:35:27.363Z,99737.84
2018-09-19T11:37:56.671Z,99746.17
2018-09-19T11:40:25.963Z,99738.25
2018-09-19T11:42:55.854Z,99736.44
2018-09-19T11:45:24.986Z,99737.84
2018-09-19T11:47:54.440Z,99740.41
2018-09-19T11:50:23.588Z,99732.66
2018-09-19T11:52:52.705Z,99731.88
2018-09-19T11:55:22.395Z,99726.71
2018-09-19T11:57:52.104Z,99719.34
2018-09-19T12:00:21.849Z,99722.74
2018-09-19T12:02:51.041Z,99727.84
2018-09-19T12:05:20.132Z,99721.13
2018-09-19T12:07:50.383Z,99724.97
2018-09-19T12:10:19.376Z,99711.27
2018-09-19T12:12:49.446Z,99708.52
2018-09-19T12:15:19.057Z,99714.11
2018-09-19T12:17:48.255Z,99709.26
2018-09-19T12:20:17.261Z,99712.48
2018-09-19T12:22:46.705Z,99709.50
2018-09-19T12:25:15.847Z,99714.81
2018-09-19T12:27:45.176Z,99718.27
2018-09-19T12:30:14.292Z,99712.23
2018-09-19T12:32:44.167Z,99707.38
2018-09-19T12:35:13.436Z,99703.78
2018-09-19T12:37:42.557Z,99706.80
2018-09-19T12:40:11.625Z,99702.89
2018-09-19T12:42:41.206Z,99697.55
2018-09-19T12:45:10.408Z,99702.44
2018-09-19T12:47:39.509Z,99703.23
2018-09-19T12:50:08.541Z,99705.87
2018-09-19T12:52:37.519Z,99708.19
2018-09-19T12:55:06.735Z,99699.73
2018-09-19T12:57:35.837Z,99693.82
2018-09-19T13:00:05.132Z,99698.06
2018-09-19T13:02:34.410Z,99695.50
2018-09-19T13:05:03.566Z,99689.33
2018-09-19T13:07:32.838Z,99686.12
2018-09-19T13:10:02.021Z,99692.37
2018-09-19T13:12:31.058Z,99690.05
2018-09-19T13:15:00.512Z,99682.79
2018-09-19T13:17:30.018Z,99684.06
2018-09-19T13:19:59.285Z,99691.48
2018-09-19T13:22:28.397Z,99687.41
2018-09-19T13:24:57.852Z,99688.22
2018-09-19T13:27:27.131Z,99679.21
2018-09-19T13:29:56.496Z,99679.02
2018-09-19T13:32:25.949Z,99674.98
2018-09-19T13:34:55.060Z,99675.46
2018-09-19T13:37:24.027Z,99672.57
2018-09-19T13:39:53.510Z,99675.47
2018-09-19T13:42:22.595Z,99676.98
2018-09-19T13:44:51.888Z,99681.02
2018-09-19T13:47:20.901Z,99677.44
2018-09-19T13:49:54.834Z,99678.38
2018-09-19T13:52:23.702Z,99681.83
2018-09-19T13:54:53.395Z,99676.97
2018-09-19T13:57:22.715Z,99685.87
2018-09-19T13:59:53.101Z,99676.84
2018-09-19T14:02:22.484Z,99680.64
2018-09-19T14:04:52.137Z,99680.16
2018-09-19T14:07:21.371Z,99686.63
2018-09-19T14:09:50.608Z,99675.05
2018-09-19T14:12:20.282Z,99680.39
2018-09-19T14:14:49.898Z,99674.84
2018-09-19T14:17:18.902Z,99679.57
2018-09-19T14:19:47.870Z,99682.67
2018-09-19T14:22:17.124Z,99679.66
2018-09-19T14:24:47.030Z,99685.89
2018-09-19T14:27:16.286Z,99686.58
2018-09-19T14:29:45.761Z,99686.33
2018-09-19T14:32:14.995Z,99681.14
2018-09-19T14:34:45.427Z,99682.53
2018-09-19T14:37:15.114Z,99675.94
2018-09-19T14:39:44.367Z,99674.03
2018-09-19T14:42:13.666Z,99674.52
2018-09-19T14:44:42.935Z,99675.71
2018-09-19T14:47:12.031Z,99671.44
2018-09-19T14:49:41.425Z,99684.20
2018-09-19T14:52:10.537Z,99685.47
2018-09-19T14:54:39.812Z,99681.30
2018-09-19T14:57:09.591Z,99684.08
2018-09-19T14:59:38.869Z,99685.34
2018-09-19T15:02:08.120Z,99686.04
2018-09-19T15:04:37.270Z,99683.23
2018-09-19T15:07:06.789Z,99683.22
2018-09-19T15:09:35.725Z,99681.92
2018-09-19T15:12:05.015Z,99683.42
2018-09-19T15:14:34.156Z,99678.81
2018-09-19T15:17:03.428Z,99678.32
2018-09-19T15:19:32.804Z,99671.84
2018-09-19T15:22:02.189Z,99679.34
2018-09-19T15:24:31.688Z,99673.58
2018-09-19T15:27:01.551Z,99671.95
2018-09-19T15:29:30.490Z,99669.75
2018-09-19T15:31:59.845Z,99667.55
2018-09-19T15:34:29.017Z,99663.02
2018-09-19T15:36:58.579Z,99662.08
2018-09-19T15:39:28.102Z,99668.80
2018-09-19T15:41:57.151Z,99663.94
2018-09-19T15:44:26.553Z,99658.48
2018-09-19T15:46:56.136Z,99657.20
2018-09-19T15:49:25.438Z,99663.41
2018-09-19T15:51:54.707Z,99664.30
2018-09-19T15:54:24.335Z,99663.28
2018-09-19T15:56:53.498Z,99661.41
2018-09-19T15:59:22.559Z,99663.72
2018-09-19T16:01:51.489Z,99665.19
2018-09-19T16:04:20.918Z,99667.75
2018-09-19T16:06:51.984Z,99669.22
2018-09-19T16:09:21.103Z,99668.19
2018-09-19T16:11:50.547Z,99677.64
2018-09-19T16:14:19.949Z,99671.97
2018-09-19T16:16:48.927Z,99676.80
2018-09-19T16:19:18.311Z,99687.19
2018-09-19T16:21:47.480Z,99681.27
2018-09-19T16:24:16.624Z,99678.92
2018-09-19T16:26:45.600Z,99682.38
2018-09-19T16:29:14.796Z,99688.56
2018-09-19T16:31:44.124Z,99685.66
2018-09-19T16:34:13.196Z,99691.42
2018-09-19T16:36:42.846Z,99687.45
2018-09-19T16:39:12.992Z,99687.56
2018-09-19T16:41:42.468Z,99689.34
2018-09-19T16:44:12.215Z,99693.36
2018-09-19T16:46:41.901Z,99691.58
2018-09-19T16:49:11.138Z,99690.38
2018-09-19T16:51:40.890Z,99695.53
2018-09-19T16:54:09.886Z,99694.60
2018-09-19T16:56:38.895Z,99698.58
2018-09-19T16:59:08.703Z,99699.03
2018-09-19T17:01:37.775Z,99693.42
2018-09-19T17:04:06.792Z,99691.08
2018-09-19T17:06:36.020Z,99698.42
2018-09-19T17:09:06.188Z,99704.37
2018-09-19T17:11:35.386Z,99702.95
2018-09-19T17:14:04.471Z,99706.23
2018-09-19T17:16:33.793Z,99706.69
2018-09-19T17:19:03.245Z,99704.69
2018-09-19T17:21:32.405Z,99713.72
2018-09-19T17:24:01.436Z,99707.56
2018-09-19T17:26:30.700Z,99711.81
2018-09-19T17:29:00.320Z,99708.64
2018-09-19T17:31:29.606Z,99709.46
2018-09-19T17:33:58.978Z,99714.48
2018-09-19T17:36:28.325Z,99711.35
2018-09-19T17:38:57.866Z,99716.28
2018-09-19T17:41:27.311Z,99718.23
2018-09-19T17:43:56.417Z,99720.30
2018-09-19T17:46:25.846Z,99728.09
2018-09-19T17:48:55.704Z,99725.02
2018-09-19T17:51:25.157Z,99732.83
2018-09-19T17:53:54.374Z,99732.47
2018-09-19T17:56:23.932Z,99734.80
2018-09-19T17:58:53.150Z,99735.64
2018-09-19T18:01:22.989Z,99735.44
2018-09-19T18:03:52.031Z,99738.14
2018-09-19T18:06:21.557Z,99736.77
2018-09-19T18:08:50.728Z,99741.51
2018-09-19T18:11:19.911Z,99738.02
2018-09-19T18:13:50.142Z,99738.11
2018-09-19T18:16:19.377Z,99738.09
2018-09-19T18:18:48.831Z,99744.52
2018-09-19T18:21:18.335Z,99740.39
2018-09-19T18:23:47.381Z,99747.92
2018-09-19T18:26:16.453Z,99743.55
2018-09-19T18:28:45.595Z,99750.67
2018-09-19T18:31:14.976Z,99752.77
2018-09-19T18:33:44.188Z,99754.84
2018-09-19T18:36:13.099Z,99760.21
2018-09-19T18:38:42.465Z,99761.66
2018-09-19T18:41:11.549Z,99756.98
2018-09-19T18:43:40.643Z,99751.77
2018-09-19T18:46:10.678Z,99766.58
2018-09-19T18:48:39.795Z,99766.53
2018-09-19T18:51:09.249Z,99772.47
2018-09-19T18:53:38.747Z,99768.51
2018-09-19T18:56:08.202Z,99768.34
2018-09-19T18:58:37.317Z,99775.87
2018-09-19T19:01:06.609Z,99781.47
2018-09-19T19:03:35.908Z,99783.98
2018-09-19T19:06:05.541Z,99776.58
2018-09-19T19:08:35.178Z,99779.58
2018-09-19T19:11:04.307Z,99777.60
2018-09-19T19:13:33.724Z,99774.72
2018-09-19T19:16:03.128Z,99774.08
2018-09-19T19:18:32.636Z,99776.41
2018-09-19T19:21:02.095Z,99775.73
2018-09-19T19:23:31.340Z,99776.12
2018-09-19T19:26:00.601Z,99779.48
2018-09-19T19:28:29.921Z,99775.73
2018-09-19T19:30:59.252Z,99776.95
2018-09-19T19:33:28.690Z,99773.78
2018-09-19T19:35:58.135Z,99769.77
2018-09-19T19:38:28.813Z,99763.00
2018-09-19T19:40:58.347Z,99759.59
2018-09-19T19:43:27.736Z,99766.31
2018-09-19T19:45:57.484Z,99762.22
2018-09-19T19:48:26.844Z,99771.14
2018-09-19T19:50:56.081Z,99773.97
2018-09-19T19:53:25.383Z,99774.61
2018-09-19T19:55:55.062Z,99774.17
2018-09-19T19:58:24.644Z,99771.05
2018-09-19T20:00:54.456Z,99776.18
2018-09-19T20:03:23.797Z,99777.68
2018-09-19T20:05:53.107Z,99771.80
2018-09-19T20:08:22.298Z,99771.66
2018-09-19T20:10:51.352Z,99774.78
2018-09-19T20:13:20.714Z,99771.84
2018-09-19T20:15:49.967Z,99769.72
2018-09-19T20:18:18.917Z,99764.58
2018-09-19T20:20:48.375Z,99763.84
2018-09-19T20:23:17.650Z,99770.28
2018-09-19T20:25:47.312Z,99765.14
2018-09-19T20:28:16.639Z,99771.28
2018-09-19T20:30:45.837Z,99771.66
2018-09-19T20:33:15.123Z,99773.40
2018-09-19T20:35:44.244Z,99770.71
2018-09-19T20:38:13.998Z,99768.33
2018-09-19T20:40:42.938Z,99765.67
2018-09-19T20:43:12.016Z,99759.72
2018-09-19T20:45:41.228Z,99765.59
2018-09-19T20:48:10.918Z,99765.40
2018-09-19T20:50:40.176Z,99768.52
2018-09-19T20:53:09.441Z,99774.06
2018-09-19T20:55:38.625Z,99772.20
2018-09-19T20:58:07.729Z,99768.92
2018-09-19T21:00:37.124Z,99773.67
2018-09-19T21:03:06.617Z,99769.34
2018-09-19T21:05:35.900Z,99763.91
2018-09-19T21:08:05.242Z,99768.89
2018-09-19T21:10:34.624Z,99772.01
2018-09-19T21:13:03.870Z,99765.48
2018-09-19T21:15:33.348Z,99762.86
2018-09-19T21:18:02.753Z,99764.86
2018-09-19T21:20:32.155Z,99757.52
2018-09-19T21:23:01.265Z,99761.45
2018-09-19T21:25:30.557Z,99757.41
2018-09-19T21:27:59.842Z,99759.41
2018-09-19T21:30:29.050Z,99754.26
2018-09-19T21:32:58.281Z,99759.53
2018-09-19T21:35:27.567Z,99751.34
2018-09-19T21:37:56.512Z,99757.69
2018-09-19T21:40:26.065Z,99757.75
2018-09-19T21:42:55.418Z,99767.41
2018-09-19T21:45:24.414Z,99766.42
2018-09-19T21:47:53.612Z,99755.50
2018-09-19T21:50:22.799Z,99756.70
2018-09-19T21:52:52.043Z,99758.69
2018-09-19T21:55:21.283Z,99761.23
2018-09-19T21:57:50.482Z,99757.17
2018-09-19T22:00:19.912Z,99754.97
2018-09-19T22:02:49.109Z,99761.30
2018-09-19T22:05:18.272Z,99759.05
2018-09-19T22:07:47.471Z,99760.73
2018-09-19T22:10:16.565Z,99760.19
2018-09-19T22:12:46.057Z,99761.30
2018-09-19T22:15:15.539Z,99764.60
2018-09-19T22:17:44.843Z,99759.66
2018-09-19T22:20:14.003Z,99765.42
2018-09-19T22:22:43.220Z,99764.55
2018-09-19T22:25:12.507Z,99760.41
2018-09-19T22:27:41.602Z,99765.92
2018-09-19T22:30:10.889Z,99767.00
2018-09-19T22:32:39.926Z,99767.00
2018-09-19T22:35:08.915Z,99764.25
2018-09-19T22:37:38.285Z,99772.45
2018-09-19T22:40:10.121Z,99766.94
2018-09-19T22:42:39.352Z,99770.52
2018-09-19T22:45:08.748Z,99770.25
2018-09-19T22:47:37.867Z,99766.94
2018-09-19T22:50:07.157Z,99762.00
2018-09-19T22:52:36.519Z,99763.96
2018-09-19T22:55:05.929Z,99765.63
2018-09-19T22:57:35.194Z,99763.98
2018-09-19T23:00:04.459Z,99759.05
2018-09-19T23:02:33.525Z,99758.48
2018-09-19T23:05:02.671Z,99757.11
2018-09-19T23:07:32.189Z,99760.39
2018-09-19T23:10:01.752Z,99755.13
2018-09-19T23:12:30.957Z,99757.58
2018-09-19T23:15:00.248Z,99754.56
2018-09-19T23:17:29.990Z,99752.70
2018-09-19T23:19:59.762Z,99754.09
2018-09-19T23:22:29.259Z,99751.14
2018-09-19T23:24:58.344Z,99762.47
2018-09-19T23:27:27.633Z,99754.23
2018-09-19T23:29:57.637Z,99755.38
2018-09-19T23:32:26.968Z,99757.31
2018-09-19T23:34:56.295Z,99758.16
2018-09-19T23:37:25.611Z,99760.41
2018-09-19T23:39:54.642Z,99759.33
2018-09-19T23:42:23.883Z,99755.81
2018-09-19T23:44:53.216Z,99755.60
2018-09-19T23:47:22.470Z,99758.14
2018-09-19T23:49:51.606Z,99754.63
2018-09-19T23:52:20.951Z,99748.60
2018-09-19T23:54:51.393Z,99752.94
2018-09-19T23:57:20.561Z,99752.38
2018-09-19T23:59:49.886Z,99754.58
